Time;durP1;ratioP1;P1;durP2;ratioP2;P2;SDS_P1;SDS_P2;PMS_P1;PMS_P2;Temp;Humidity;BMP_temperature;BMP_pressure;BME280_temperature;BME280_humidity;BME280_pressure;Samples;Min_cycle;Max_cycle;Signal;HPM_P1;HPM_P2
2023/01/09 00:00:56;;;;;;;35.35;22.38;;;5.00;99.90;;;;;;4956768;28;20046;-65
2023/01/09 00:03:23;;;;;;;35.10;20.75;;;5.00;99.90;;;;;;4952897;28;20413;-64
2023/01/09 00:05:50;;;;;;;35.55;23.27;;;5.00;99.90;;;;;;4950303;28;20133;-64
2023/01/09 00:08:18;;;;;;;35.55;22.90;;;5.00;99.90;;;;;;4957489;28;20364;-67
2023/01/09 00:10:45;;;;;;;30.45;21.52;;;5.00;99.90;;;;;;4955630;28;20070;-66
2023/01/09 00:13:13;;;;;;;33.22;23.15;;;5.00;99.90;;;;;;4959420;28;20047;-63
2023/01/09 00:15:40;;;;;;;33.78;20.90;;;5.00;99.90;;;;;;4955081;28;20057;-62
2023/01/09 00:18:07;;;;;;;35.38;23.95;;;5.00;99.90;;;;;;4954296;28;20050;-67
2023/01/09 00:20:35;;;;;;;39.45;21.92;;;5.00;99.90;;;;;;4957480;28;20051;-65
2023/01/09 00:23:02;;;;;;;31.25;21.27;;;5.00;99.90;;;;;;4949589;28;20059;-66
2023/01/09 00:25:29;;;;;;;29.05;20.63;;;5.00;99.90;;;;;;4955204;28;20063;-63
2023/01/09 00:27:56;;;;;;;31.60;21.27;;;5.00;99.90;;;;;;4954399;28;20138;-66
2023/01/09 00:30:23;;;;;;;30.85;20.35;;;5.00;99.90;;;;;;4963751;28;20051;-65
2023/01/09 00:32:50;;;;;;;31.77;20.48;;;5.00;99.90;;;;;;4952041;28;20058;-63
2023/01/09 00:35:17;;;;;;;28.30;19.52;;;5.00;99.90;;;;;;4944599;28;20469;-66
2023/01/09 00:37:44;;;;;;;27.88;18.70;;;5.00;99.90;;;;;;4955057;28;20142;-63
2023/01/09 00:40:14;;;;;;;29.65;18.70;;;5.00;99.90;;;;;;4952606;28;20059;-66
2023/01/09 00:42:47;;;;;;;30.73;19.20;;;5.00;99.90;;;;;;4954242;28;20043;-64
2023/01/09 00:45:18;;;;;;;28.25;19.02;;;5.00;99.90;;;;;;4952387;28;20110;-62
2023/01/09 00:47:50;;;;;;;25.63;17.85;;;5.00;99.90;;;;;;4952934;28;20062;-63
2023/01/09 00:50:21;;;;;;;26.50;18.90;;;5.00;99.90;;;;;;4953423;28;20110;-63
2023/01/09 00:52:50;;;;;;;24.33;17.88;;;5.00;99.90;;;;;;4955416;28;20075;-63
2023/01/09 00:55:17;;;;;;;28.38;18.95;;;5.00;99.90;;;;;;4954021;28;20109;-63
2023/01/09 00:57:44;;;;;;;25.67;17.63;;;5.10;99.90;;;;;;4956058;28;20051;-63
2023/01/09 01:00:11;;;;;;;22.35;17.98;;;5.00;99.90;;;;;;4954942;28;20054;-63
2023/01/09 01:02:39;;;;;;;26.00;17.35;;;5.00;99.90;;;;;;4950540;28;20150;-64
2023/01/09 01:07:51;;;;;;;24.52;15.90;;;5.00;99.90;;;;;;4954657;28;20070;-64
2023/01/09 01:10:21;;;;;;;26.50;16.35;;;5.00;99.90;;;;;;4952851;28;20050;-64
2023/01/09 01:12:49;;;;;;;23.00;17.23;;;5.00;99.90;;;;;;4951913;28;20070;-64
2023/01/09 01:15:16;;;;;;;21.13;15.40;;;5.00;99.90;;;;;;4951156;28;20389;-62
2023/01/09 01:17:44;;;;;;;22.90;17.33;;;5.00;99.90;;;;;;4951680;28;20772;-63
2023/01/09 01:20:16;;;;;;;24.60;17.80;;;5.00;99.90;;;;;;4954845;28;20472;-63
2023/01/09 01:22:43;;;;;;;22.92;16.88;;;5.00;99.90;;;;;;4948950;28;20053;-63
2023/01/09 01:25:12;;;;;;;25.08;17.55;;;5.00;99.90;;;;;;4956057;28;20061;-66
2023/01/09 01:27:40;;;;;;;22.73;17.08;;;5.00;99.90;;;;;;4951091;28;21091;-63
2023/01/09 01:30:08;;;;;;;24.00;17.23;;;5.00;99.90;;;;;;4952841;28;20163;-63
2023/01/09 01:32:35;;;;;;;25.30;16.42;;;5.00;99.90;;;;;;4949659;28;20047;-63
2023/01/09 01:35:03;;;;;;;27.73;17.38;;;5.00;99.90;;;;;;4957309;28;20145;-63
2023/01/09 01:37:30;;;;;;;22.98;17.90;;;5.00;99.90;;;;;;4957834;28;20085;-62
2023/01/09 01:39:57;;;;;;;25.45;17.45;;;5.00;99.90;;;;;;4957179;28;20054;-63
2023/01/09 01:42:24;;;;;;;23.17;17.02;;;5.00;99.90;;;;;;4949485;28;20076;-64
2023/01/09 01:44:57;;;;;;;23.48;18.15;;;5.00;99.90;;;;;;4950856;28;20054;-63
2023/01/09 01:47:31;;;;;;;22.98;16.73;;;5.00;99.90;;;;;;4955569;28;20043;-70
2023/01/09 01:50:02;;;;;;;25.83;19.02;;;5.00;99.90;;;;;;4949924;28;20117;-62
2023/01/09 01:52:31;;;;;;;21.98;15.02;;;5.00;99.90;;;;;;4952284;28;20491;-64
2023/01/09 01:54:58;;;;;;;23.05;16.63;;;5.10;99.90;;;;;;4953758;28;20051;-67
2023/01/09 01:57:25;;;;;;;20.60;15.15;;;5.00;99.90;;;;;;4954529;28;20477;-62
2023/01/09 01:59:56;;;;;;;26.02;17.20;;;5.10;99.90;;;;;;4955225;28;20512;-62
2023/01/09 02:02:28;;;;;;;23.98;16.02;;;5.10;99.90;;;;;;4949408;28;20496;-63
2023/01/09 02:04:57;;;;;;;24.30;16.70;;;5.10;99.90;;;;;;4953503;28;20054;-62
2023/01/09 02:07:24;;;;;;;20.30;15.25;;;5.10;99.90;;;;;;4951104;28;20050;-63
2023/01/09 02:09:52;;;;;;;21.60;15.90;;;5.10;99.90;;;;;;4956616;28;20047;-66
2023/01/09 02:12:25;;;;;;;25.05;16.17;;;5.10;99.90;;;;;;4960552;28;20094;-62
2023/01/09 02:15:02;;;;;;;22.73;16.52;;;5.10;99.90;;;;;;4946702;28;20083;-62
2023/01/09 02:17:48;;;;;;;22.58;16.60;;;5.10;99.90;;;;;;4950360;28;20071;-63
2023/01/09 02:20:42;;;;;;;23.33;16.00;;;5.10;99.90;;;;;;4950186;28;20859;-65
2023/01/09 02:23:46;;;;;;;23.58;15.95;;;5.10;99.90;;;;;;4952941;28;20146;-66
2023/01/09 02:26:53;;;;;;;23.40;16.15;;;5.10;99.90;;;;;;4953676;28;20180;-64
2023/01/09 02:29:43;;;;;;;19.25;13.73;;;5.10;99.90;;;;;;4950062;28;20065;-64
2023/01/09 02:32:27;;;;;;;23.13;16.30;;;5.10;99.90;;;;;;4947215;28;20458;-64
2023/01/09 02:35:37;;;;;;;21.73;17.00;;;5.00;99.90;;;;;;4947673;28;20043;-64
2023/01/09 02:38:23;;;;;;;22.45;14.35;;;5.10;99.90;;;;;;4929771;28;20078;-62
2023/01/09 02:41:00;;;;;;;20.77;14.52;;;5.10;99.90;;;;;;4953374;28;20154;-64
2023/01/09 02:43:27;;;;;;;19.02;14.32;;;5.10;99.90;;;;;;4953925;28;20163;-65
2023/01/09 02:45:54;;;;;;;26.25;15.38;;;5.10;99.90;;;;;;4951094;28;20047;-62
2023/01/09 02:48:21;;;;;;;21.42;14.57;;;5.00;99.90;;;;;;4951552;28;20545;-65
2023/01/09 02:51:18;;;;;;;18.58;13.95;;;5.00;99.90;;;;;;4946874;28;20150;-66
2023/01/09 02:54:20;;;;;;;22.20;15.85;;;5.10;99.90;;;;;;4947476;28;20069;-63
2023/01/09 02:57:05;;;;;;;17.35;12.65;;;5.10;99.90;;;;;;4947737;28;20360;-70
2023/01/09 02:59:54;;;;;;;20.20;12.73;;;5.10;99.90;;;;;;4951754;28;20475;-66
2023/01/09 03:02:45;;;;;;;15.63;12.85;;;5.10;99.90;;;;;;4941977;28;20047;-62
2023/01/09 03:05:21;;;;;;;18.02;13.15;;;5.10;99.90;;;;;;4950229;28;20047;-64
2023/01/09 03:07:58;;;;;;;18.08;15.60;;;5.10;99.90;;;;;;4950278;28;20494;-64
2023/01/09 03:10:50;;;;;;;19.40;14.13;;;5.10;99.90;;;;;;4947054;28;20050;-70
2023/01/09 03:13:21;;;;;;;20.17;11.95;;;5.10;99.90;;;;;;4953085;28;20492;-61
2023/01/09 03:15:51;;;;;;;19.77;13.23;;;5.10;99.90;;;;;;4957328;28;20053;-62
2023/01/09 03:18:22;;;;;;;19.58;13.20;;;5.10;99.90;;;;;;4952545;28;20043;-62
2023/01/09 03:20:50;;;;;;;17.35;12.25;;;5.10;99.90;;;;;;4950864;28;20080;-65
2023/01/09 03:23:17;;;;;;;15.95;12.35;;;5.10;99.90;;;;;;4958179;28;20137;-63
2023/01/09 03:25:44;;;;;;;16.08;12.98;;;5.10;99.90;;;;;;4955590;28;20052;-63
2023/01/09 03:28:31;;;;;;;18.45;12.13;;;5.10;99.90;;;;;;4955096;28;20055;-62
2023/01/09 03:30:58;;;;;;;17.23;13.25;;;5.10;99.90;;;;;;4950621;28;20125;-62
2023/01/09 03:33:25;;;;;;;17.05;12.88;;;5.10;99.90;;;;;;4952232;28;20054;-63
2023/01/09 03:35:52;;;;;;;17.95;13.43;;;5.10;99.90;;;;;;4958246;28;20054;-63
2023/01/09 03:38:18;;;;;;;18.05;13.70;;;5.10;99.90;;;;;;4954723;28;20047;-62
2023/01/09 03:40:45;;;;;;;21.98;13.57;;;5.10;99.90;;;;;;4957986;28;20491;-66
2023/01/09 03:43:12;;;;;;;20.42;14.43;;;5.10;99.90;;;;;;4952555;28;20087;-63
2023/01/09 03:45:39;;;;;;;21.95;14.10;;;5.10;99.90;;;;;;4956170;28;20117;-63
2023/01/09 03:48:06;;;;;;;18.60;13.80;;;5.20;99.90;;;;;;4953961;28;20090;-64
2023/01/09 03:50:33;;;;;;;23.35;16.42;;;5.20;99.90;;;;;;4953331;28;20548;-68
2023/01/09 03:53:00;;;;;;;23.45;16.45;;;5.20;99.90;;;;;;4958205;28;20054;-62
2023/01/09 03:55:27;;;;;;;21.45;16.65;;;5.20;99.90;;;;;;4955399;28;20504;-63
2023/01/09 03:57:54;;;;;;;24.20;16.27;;;5.10;99.90;;;;;;4954960;28;20422;-64
2023/01/09 04:00:21;;;;;;;23.90;16.30;;;5.10;99.90;;;;;;4957341;28;20522;-61
2023/01/09 04:02:48;;;;;;;21.98;16.67;;;5.20;99.90;;;;;;4956183;28;20050;-63
2023/01/09 04:05:15;;;;;;;27.48;18.27;;;5.20;99.90;;;;;;4955329;28;20054;-63
2023/01/09 04:07:42;;;;;;;21.38;15.15;;;5.20;99.90;;;;;;4958130;28;20078;-63
2023/01/09 04:10:10;;;;;;;22.38;16.95;;;5.20;99.90;;;;;;4954153;28;20065;-65
2023/01/09 04:12:37;;;;;;;26.23;18.35;;;5.20;99.90;;;;;;4953474;28;20421;-65
2023/01/09 04:15:04;;;;;;;27.65;16.27;;;5.20;99.90;;;;;;4952556;28;20492;-64
2023/01/09 04:17:31;;;;;;;25.15;17.92;;;5.20;99.90;;;;;;4955693;28;20051;-63
2023/01/09 04:19:58;;;;;;;26.90;17.83;;;5.20;99.90;;;;;;4957544;28;20069;-62
2023/01/09 04:22:25;;;;;;;21.95;17.42;;;5.20;99.90;;;;;;4954415;28;20058;-62
2023/01/09 04:24:52;;;;;;;26.08;17.50;;;5.10;99.90;;;;;;4947044;28;20135;-64
2023/01/09 04:27:19;;;;;;;26.58;16.95;;;5.20;99.90;;;;;;4955120;28;20043;-62
2023/01/09 04:29:46;;;;;;;22.73;16.98;;;5.20;99.90;;;;;;4955701;28;20257;-63
2023/01/09 04:32:12;;;;;;;22.95;16.13;;;5.20;99.90;;;;;;4955077;28;20050;-63
2023/01/09 04:34:39;;;;;;;24.20;16.85;;;5.20;99.90;;;;;;4952990;28;20362;-62
2023/01/09 04:37:06;;;;;;;21.73;15.63;;;5.20;99.90;;;;;;4955401;28;20078;-62
2023/01/09 04:39:33;;;;;;;22.08;16.63;;;5.20;99.90;;;;;;4960263;28;20069;-66
2023/01/09 04:42:00;;;;;;;23.67;17.67;;;5.20;99.90;;;;;;4955429;28;20047;-64
2023/01/09 04:44:27;;;;;;;25.08;16.30;;;5.20;99.90;;;;;;4953174;28;20141;-66
2023/01/09 04:46:57;;;;;;;22.63;16.20;;;5.20;99.90;;;;;;4947559;28;20627;-64
2023/01/09 04:49:24;;;;;;;;;;;5.30;99.90;;;;;;4959171;28;20397;-64
2023/01/09 04:51:52;;;;;;;22.67;15.00;;;5.20;99.90;;;;;;4949150;28;19933;-64
2023/01/09 04:54:19;;;;;;;22.50;14.95;;;5.20;99.90;;;;;;4955029;28;20155;-62
2023/01/09 04:56:46;;;;;;;19.95;15.32;;;5.30;99.90;;;;;;4951304;28;20047;-63
2023/01/09 04:59:13;;;;;;;22.00;15.25;;;5.20;99.90;;;;;;4956553;28;20054;-64
2023/01/09 05:01:40;;;;;;;19.20;15.23;;;5.20;99.90;;;;;;4951874;28;20047;-63
2023/01/09 05:04:07;;;;;;;18.92;14.38;;;5.30;99.90;;;;;;4955147;28;20444;-62
2023/01/09 05:06:34;;;;;;;18.30;14.68;;;5.20;99.90;;;;;;4951033;28;20138;-65
2023/01/09 05:09:02;;;;;;;18.30;14.10;;;5.30;99.90;;;;;;4952877;28;20683;-61
2023/01/09 05:11:28;;;;;;;16.55;14.13;;;5.30;99.90;;;;;;4948237;28;20559;-68
2023/01/09 05:13:55;;;;;;;20.33;15.02;;;5.30;99.90;;;;;;4948977;28;20155;-64
2023/01/09 05:16:22;;;;;;;19.10;14.43;;;5.30;99.90;;;;;;4954356;28;20059;-66
2023/01/09 05:18:55;;;;;;;18.58;15.88;;;5.30;99.90;;;;;;4949293;28;20055;-63
2023/01/09 05:21:25;;;;;;;20.50;13.68;;;5.30;99.90;;;;;;4952983;28;20512;-64
2023/01/09 05:23:52;;;;;;;20.75;15.32;;;5.30;99.90;;;;;;4951292;28;20136;-63
2023/01/09 05:26:23;;;;;;;21.08;15.70;;;5.30;99.90;;;;;;4954232;28;20046;-62
2023/01/09 05:28:51;;;;;;;19.95;14.75;;;5.30;99.90;;;;;;4947028;28;20062;-64
2023/01/09 05:31:19;;;;;;;19.33;14.77;;;5.30;99.90;;;;;;4955505;28;20055;-69
2023/01/09 05:33:45;;;;;;;17.42;15.43;;;5.30;99.90;;;;;;4953254;28;20057;-62
2023/01/09 05:36:13;;;;;;;19.02;14.93;;;5.30;99.90;;;;;;4953429;28;20050;-63
2023/01/09 05:38:40;;;;;;;17.90;13.35;;;5.30;99.90;;;;;;4953522;28;20055;-66
2023/01/09 05:41:06;;;;;;;16.88;14.02;;;5.30;99.90;;;;;;4955409;28;20062;-62
2023/01/09 05:43:33;;;;;;;20.45;15.13;;;5.30;99.90;;;;;;4955227;28;20401;-64
2023/01/09 05:46:00;;;;;;;16.55;13.73;;;5.30;99.90;;;;;;4954337;28;20139;-69
2023/01/09 05:48:27;;;;;;;18.52;13.65;;;5.30;99.90;;;;;;4952650;28;20078;-63
2023/01/09 05:50:54;;;;;;;16.17;12.50;;;5.30;99.90;;;;;;4954544;28;20480;-65
2023/01/09 05:53:21;;;;;;;19.17;12.70;;;5.30;99.90;;;;;;4953167;28;20185;-69
2023/01/09 05:55:48;;;;;;;17.00;12.52;;;5.30;99.90;;;;;;4948967;28;20057;-63
2023/01/09 05:58:15;;;;;;;14.82;11.95;;;5.40;99.90;;;;;;4954015;28;20055;-67
2023/01/09 06:00:41;;;;;;;15.13;11.52;;;5.40;99.90;;;;;;4951812;28;20472;-66
2023/01/09 06:03:08;;;;;;;15.52;12.82;;;5.30;99.90;;;;;;4953728;28;20043;-62
2023/01/09 06:05:35;;;;;;;16.77;13.00;;;5.30;99.90;;;;;;4949949;28;20067;-66
2023/01/09 06:08:02;;;;;;;13.25;11.77;;;5.40;99.90;;;;;;4957428;28;20057;-64
2023/01/09 06:10:29;;;;;;;15.13;12.57;;;5.40;99.90;;;;;;4950310;28;20514;-65
2023/01/09 06:12:56;;;;;;;16.48;12.27;;;5.40;99.90;;;;;;4956235;28;20314;-64
2023/01/09 06:15:22;;;;;;;16.60;13.20;;;5.40;99.90;;;;;;4950754;28;20110;-65
2023/01/09 06:17:49;;;;;;;14.73;11.80;;;5.40;99.90;;;;;;4952686;28;20048;-64
2023/01/09 06:20:16;;;;;;;15.38;12.38;;;5.30;99.90;;;;;;4953664;28;20795;-64
2023/01/09 06:22:44;;;;;;;14.80;11.70;;;5.30;99.90;;;;;;4955247;28;20348;-66
2023/01/09 06:25:12;;;;;;;13.38;11.80;;;5.30;99.90;;;;;;4951711;28;20118;-62
2023/01/09 06:27:39;;;;;;;14.82;11.88;;;5.30;99.90;;;;;;4948044;28;20138;-64
2023/01/09 06:30:06;;;;;;;15.10;11.75;;;5.30;99.90;;;;;;4954090;28;20584;-65
2023/01/09 06:32:33;;;;;;;16.65;12.85;;;5.30;99.90;;;;;;4950113;28;20113;-68
2023/01/09 06:35:00;;;;;;;15.73;12.65;;;5.30;99.90;;;;;;4957460;28;20053;-66
2023/01/09 06:37:27;;;;;;;20.65;15.65;;;5.30;99.90;;;;;;4954624;28;20051;-66
2023/01/09 06:39:54;;;;;;;17.50;14.75;;;5.30;99.90;;;;;;4954064;28;20065;-66
2023/01/09 06:42:21;;;;;;;23.05;15.60;;;5.30;99.90;;;;;;4952730;28;20138;-67
2023/01/09 06:44:48;;;;;;;24.55;17.02;;;5.30;99.90;;;;;;4951252;28;20051;-62
2023/01/09 06:47:15;;;;;;;32.55;20.63;;;5.30;99.90;;;;;;4952275;28;20065;-65
2023/01/09 06:49:41;;;;;;;31.13;23.08;;;5.30;99.90;;;;;;4957398;28;20146;-62
2023/01/09 06:52:08;;;;;;;33.17;22.27;;;5.30;99.90;;;;;;4956762;28;20138;-62
2023/01/09 06:54:35;;;;;;;38.97;23.88;;;5.30;99.90;;;;;;4954949;28;20054;-68
2023/01/09 06:57:02;;;;;;;38.80;23.80;;;5.30;99.90;;;;;;4954178;28;20057;-62
2023/01/09 06:59:29;;;;;;;43.63;24.88;;;5.30;99.90;;;;;;4954627;28;20051;-62
2023/01/09 07:01:56;;;;;;;41.80;26.67;;;5.20;99.90;;;;;;4952326;28;20051;-65
2023/01/09 07:04:23;;;;;;;33.60;22.95;;;5.20;99.90;;;;;;4956377;28;20149;-64
2023/01/09 07:06:50;;;;;;;36.35;24.02;;;5.20;99.90;;;;;;4954442;28;20058;-62
2023/01/09 07:09:17;;;;;;;34.17;23.48;;;5.20;99.90;;;;;;4953450;28;20054;-66
2023/01/09 07:11:44;;;;;;;35.25;22.48;;;5.20;99.90;;;;;;4955658;28;20062;-62
2023/01/09 07:14:10;;;;;;;38.13;25.33;;;5.20;99.90;;;;;;4957368;28;20068;-64
2023/01/09 07:16:37;;;;;;;34.50;23.92;;;5.20;99.90;;;;;;4956330;28;20106;-67
2023/01/09 07:19:04;;;;;;;34.60;25.02;;;5.20;99.90;;;;;;4953128;28;20053;-63
2023/01/09 07:21:31;;;;;;;38.08;24.05;;;5.20;99.90;;;;;;4955832;28;20050;-64
2023/01/09 07:23:58;;;;;;;39.92;23.88;;;5.20;99.90;;;;;;4959606;28;20047;-62
2023/01/09 07:26:25;;;;;;;39.47;24.17;;;5.20;99.90;;;;;;4956243;28;20047;-62
2023/01/09 07:28:53;;;;;;;37.55;26.35;;;5.20;99.90;;;;;;4961534;28;20568;-64
2023/01/09 07:31:20;;;;;;;34.70;24.90;;;5.20;99.90;;;;;;4953878;28;20073;-62
2023/01/09 07:33:47;;;;;;;40.15;25.33;;;5.20;99.90;;;;;;4955967;28;20054;-65
2023/01/09 07:36:14;;;;;;;34.00;23.20;;;5.20;99.90;;;;;;4961194;28;20050;-65
2023/01/09 07:38:41;;;;;;;34.58;22.45;;;5.20;99.90;;;;;;4952220;28;20639;-61
2023/01/09 07:41:08;;;;;;;36.55;24.15;;;5.20;99.90;;;;;;4958176;28;20071;-64
2023/01/09 07:43:36;;;;;;;33.70;23.77;;;5.20;99.90;;;;;;4958329;28;20784;-64
2023/01/09 07:46:03;;;;;;;28.33;21.20;;;5.20;99.90;;;;;;4959306;28;20404;-64
2023/01/09 07:48:30;;;;;;;27.73;20.42;;;5.20;99.90;;;;;;4956135;28;20042;-65
2023/01/09 07:50:58;;;;;;;28.63;20.33;;;5.20;99.90;;;;;;4953584;28;20436;-62
2023/01/09 07:53:24;;;;;;;28.13;19.58;;;5.20;99.90;;;;;;4956461;28;20051;-64
2023/01/09 07:55:51;;;;;;;26.23;18.70;;;5.10;99.90;;;;;;4957621;28;20432;-67
2023/01/09 07:58:18;;;;;;;24.10;17.95;;;5.10;99.90;;;;;;4956882;28;20523;-65
2023/01/09 08:00:45;;;;;;;26.08;17.73;;;5.10;99.90;;;;;;4952292;28;20054;-66
2023/01/09 08:03:12;;;;;;;21.40;17.02;;;5.10;99.90;;;;;;4955045;28;20142;-63
2023/01/09 08:05:38;;;;;;;26.55;19.23;;;5.10;99.90;;;;;;4956035;28;20422;-65
2023/01/09 08:08:06;;;;;;;27.52;17.58;;;5.10;99.90;;;;;;4952445;28;20055;-63
2023/01/09 08:10:32;;;;;;;27.15;18.63;;;5.10;99.90;;;;;;4948987;28;20078;-66
2023/01/09 08:12:59;;;;;;;25.55;18.67;;;5.10;99.90;;;;;;4950234;28;20142;-63
2023/01/09 08:15:26;;;;;;;25.45;19.85;;;5.10;99.90;;;;;;4953395;28;20708;-63
2023/01/09 08:17:53;;;;;;;29.52;20.60;;;5.10;99.90;;;;;;4957075;28;20046;-63
2023/01/09 08:20:20;;;;;;;28.42;20.65;;;5.10;99.90;;;;;;4955291;28;20135;-62
2023/01/09 08:22:52;;;;;;;26.27;19.92;;;5.10;99.90;;;;;;4953281;28;20142;-63
2023/01/09 08:25:19;;;;;;;25.95;19.15;;;5.10;99.90;;;;;;4952742;28;20121;-62
2023/01/09 08:27:46;;;;;;;30.38;20.65;;;5.10;99.90;;;;;;4954804;28;20055;-63
2023/01/09 08:30:14;;;;;;;34.45;21.65;;;5.10;99.90;;;;;;4954724;28;20054;-63
2023/01/09 08:32:41;;;;;;;31.52;22.27;;;5.10;99.90;;;;;;4951509;28;20113;-62
2023/01/09 08:35:08;;;;;;;31.02;21.95;;;5.10;99.90;;;;;;4956404;28;20134;-63
2023/01/09 08:37:35;;;;;;;35.58;23.13;;;5.10;99.90;;;;;;4957541;28;20138;-63
2023/01/09 08:40:02;;;;;;;33.22;22.73;;;5.10;99.90;;;;;;4955332;28;20138;-66
2023/01/09 08:48:00;;;;;;;38.53;22.05;;;5.10;99.90;;;;;;4948743;28;20055;-65
2023/01/09 08:50:27;;;;;;;31.33;21.83;;;5.10;99.90;;;;;;4957328;28;20113;-65
2023/01/09 08:52:54;;;;;;;30.05;21.92;;;5.10;99.90;;;;;;4956246;28;20061;-62
2023/01/09 08:55:21;;;;;;;32.00;21.63;;;5.10;99.90;;;;;;4948677;28;20493;-66
2023/01/09 08:57:51;;;;;;;30.10;21.05;;;5.10;99.90;;;;;;4956573;28;20513;-65
2023/01/09 09:00:21;;;;;;;29.92;19.88;;;5.20;99.90;;;;;;4956264;28;20124;-64
2023/01/09 09:02:52;;;;;;;31.13;22.27;;;5.20;99.90;;;;;;4940230;28;20135;-63
2023/01/09 09:05:20;;;;;;;34.70;23.25;;;5.20;99.90;;;;;;4955597;28;22225;-63
2023/01/09 09:07:54;;;;;;;30.10;20.73;;;5.20;99.90;;;;;;4955609;28;20142;-74
2023/01/09 09:10:23;;;;;;;34.22;21.45;;;5.20;99.90;;;;;;4956294;28;20160;-63
2023/01/09 09:12:53;;;;;;;38.47;22.58;;;5.20;99.90;;;;;;4953142;28;20048;-63
2023/01/09 09:15:24;;;;;;;37.22;25.70;;;5.30;99.90;;;;;;4957534;28;20572;-61
2023/01/09 09:17:53;;;;;;;34.65;21.98;;;5.30;99.90;;;;;;4956706;28;20431;-63
2023/01/09 09:20:22;;;;;;;35.03;22.98;;;5.30;99.90;;;;;;4953911;28;20130;-62
2023/01/09 09:22:49;;;;;;;36.72;23.77;;;5.30;99.90;;;;;;4949754;28;20090;-63
2023/01/09 09:25:17;;;;;;;37.92;23.92;;;5.30;99.90;;;;;;4956375;28;20061;-63
2023/01/09 09:27:44;;;;;;;35.92;23.98;;;5.30;99.90;;;;;;4956567;28;20051;-66
2023/01/09 09:30:12;;;;;;;40.72;26.02;;;5.30;99.90;;;;;;4953929;28;20065;-65
2023/01/09 09:32:40;;;;;;;43.13;28.63;;;5.30;99.90;;;;;;4945641;28;20417;-65
2023/01/09 09:35:07;;;;;;;44.20;28.13;;;5.30;99.90;;;;;;4957857;28;20575;-64
2023/01/09 09:37:35;;;;;;;42.03;27.65;;;5.30;99.90;;;;;;4954630;28;20054;-63
2023/01/09 09:40:03;;;;;;;42.85;27.90;;;5.30;99.90;;;;;;4954495;28;20361;-62
2023/01/09 09:46:19;;;;;;;46.90;28.55;;;5.30;99.90;;;;;;4952089;28;20047;-62
2023/01/09 09:49:05;;;;;;;43.05;27.20;;;5.30;99.90;;;;;;4950616;28;20512;-64
2023/01/09 09:51:55;;;;;;;49.67;28.67;;;5.30;99.90;;;;;;4948819;28;20047;-62
2023/01/09 09:54:34;;;;;;;53.08;32.15;;;5.30;99.90;;;;;;4953363;28;20070;-62
2023/01/09 09:57:03;;;;;;;66.25;33.50;;;5.30;99.90;;;;;;4950523;28;20077;-62
2023/01/09 09:59:35;;;;;;;54.60;32.63;;;5.30;99.90;;;;;;4950434;28;20133;-62
2023/01/09 10:02:08;;;;;;;67.85;37.67;;;5.30;99.90;;;;;;4954979;28;20532;-63
2023/01/09 10:04:41;;;;;;;68.95;34.92;;;5.30;99.90;;;;;;4952092;28;20150;-69
2023/01/09 10:07:27;;;;;;;61.42;35.72;;;5.40;99.90;;;;;;4946964;28;20478;-63
2023/01/09 10:09:59;;;;;;;69.22;36.55;;;5.40;99.90;;;;;;4953763;28;20071;-65
2023/01/09 10:12:56;;;;;;;64.55;38.72;;;5.40;99.90;;;;;;4947727;28;20126;-65
2023/01/09 10:15:44;;;;;;;61.00;37.22;;;5.40;99.90;;;;;;4953428;28;20445;-64
2023/01/09 10:18:33;;;;;;;54.78;33.58;;;5.40;99.90;;;;;;4949649;28;20069;-63
2023/01/09 10:21:10;;;;;;;60.00;36.22;;;5.30;99.90;;;;;;4947644;28;20067;-63
2023/01/09 10:23:52;;;;;;;61.70;36.45;;;5.30;99.90;;;;;;4955274;28;20043;-72
2023/01/09 10:26:36;;;;;;;73.57;37.75;;;5.30;99.90;;;;;;4956264;28;20140;-64
2023/01/09 10:29:21;;;;;;;73.63;40.22;;;5.30;99.90;;;;;;4952171;28;20051;-62
2023/01/09 10:32:09;;;;;;;72.10;38.13;;;5.30;99.90;;;;;;4958180;28;20081;-64
2023/01/09 10:35:00;;;;;;;79.72;40.05;;;5.30;99.90;;;;;;4955049;28;20643;-64
2023/01/09 10:37:36;;;;;;;74.22;38.13;;;5.20;99.90;;;;;;4958696;28;20071;-63
2023/01/09 10:40:23;;;;;;;82.55;43.38;;;5.20;99.90;;;;;;4953314;28;20050;-62
2023/01/09 10:43:04;;;;;;;80.10;42.60;;;5.20;99.90;;;;;;4955335;28;20077;-64
2023/01/09 10:45:51;;;;;;;81.20;44.67;;;5.20;99.90;;;;;;4955202;28;20051;-64
2023/01/09 10:48:36;;;;;;;90.38;45.72;;;5.10;99.90;;;;;;4947453;28;20058;-63
2023/01/09 10:51:20;;;;;;;93.90;46.92;;;5.10;99.90;;;;;;4954427;28;20046;-62
2023/01/09 10:53:52;;;;;;;98.32;42.88;;;5.10;99.90;;;;;;4957183;28;20051;-66
2023/01/09 10:56:29;;;;;;;92.35;44.65;;;5.10;99.90;;;;;;4954136;28;20059;-64
2023/01/09 10:58:56;;;;;;;87.43;46.67;;;5.10;99.90;;;;;;4955980;28;20055;-65
2023/01/09 11:01:37;;;;;;;89.63;46.35;;;5.10;99.90;;;;;;4960358;28;20145;-66
2023/01/09 11:04:32;;;;;;;97.53;47.28;;;5.10;99.90;;;;;;4950319;28;20047;-65
2023/01/09 11:07:06;;;;;;;98.38;45.00;;;5.10;99.90;;;;;;4952475;28;20066;-66
2023/01/09 11:09:59;;;;;;;102.57;46.72;;;5.10;99.90;;;;;;4958210;28;20450;-62
2023/01/09 11:12:31;;;;;;;115.75;50.63;;;5.20;99.90;;;;;;4940673;28;20091;-63
2023/01/09 11:15:19;;;;;;;104.47;44.95;;;5.20;99.90;;;;;;4948723;28;20064;-66
2023/01/09 11:17:49;;;;;;;107.28;46.08;;;5.10;99.90;;;;;;4947778;28;20082;-63
2023/01/09 11:20:25;;;;;;;98.93;45.33;;;5.10;99.90;;;;;;4953261;28;20145;-70
2023/01/09 11:22:54;;;;;;;101.75;47.60;;;5.10;99.90;;;;;;4945959;28;20071;-62
2023/01/09 11:25:26;;;;;;;103.20;49.50;;;5.10;99.90;;;;;;4947412;28;20063;-64
2023/01/09 11:28:05;;;;;;;97.35;44.38;;;5.10;99.90;;;;;;4948796;28;20063;-63
2023/01/09 11:30:36;;;;;;;112.25;46.22;;;5.00;99.90;;;;;;4947416;28;20146;-66
2023/01/09 11:33:16;;;;;;;101.60;46.30;;;5.00;99.90;;;;;;4947928;28;20057;-64
2023/01/09 11:36:05;;;;;;;106.18;47.67;;;5.00;99.90;;;;;;4946139;28;20050;-64
2023/01/09 11:38:51;;;;;;;109.65;47.80;;;5.00;99.90;;;;;;4949978;28;20071;-63
2023/01/09 11:41:24;;;;;;;108.95;47.83;;;5.00;99.90;;;;;;4954479;28;20150;-66
2023/01/09 11:43:54;;;;;;;105.00;47.85;;;5.00;99.90;;;;;;4951448;28;20059;-62
2023/01/09 11:46:36;;;;;;;98.85;44.60;;;5.00;99.90;;;;;;4955554;28;20063;-64
2023/01/09 11:49:25;;;;;;;99.75;45.13;;;5.00;99.90;;;;;;4953453;28;20050;-64
2023/01/09 11:52:10;;;;;;;92.88;46.65;;;4.90;99.90;;;;;;4954523;28;20190;-71
2023/01/09 11:54:43;;;;;;;107.90;43.90;;;4.90;99.90;;;;;;4950664;28;20090;-64
2023/01/09 11:57:11;;;;;;;101.57;44.83;;;4.90;99.90;;;;;;4954894;28;20165;-64
2023/01/09 11:59:38;;;;;;;96.07;42.30;;;4.90;99.90;;;;;;4955456;28;20051;-67
2023/01/09 12:02:35;;;;;;;98.25;45.35;;;4.90;99.90;;;;;;4958816;28;20053;-62
2023/01/09 12:05:26;;;;;;;105.13;43.90;;;4.80;99.90;;;;;;4949292;28;20059;-64
2023/01/09 12:07:53;;;;;;;;;;;4.80;99.90;;;;;;4949794;28;20478;-64
2023/01/09 12:11:15;;;;;;;101.15;41.35;;;4.80;99.90;;;;;;4953759;28;19922;-63
2023/01/09 12:14:03;;;;;;;101.72;41.67;;;4.80;99.90;;;;;;4886229;29;20056;-63
2023/01/09 12:16:32;;;;;;;102.45;43.22;;;4.80;99.90;;;;;;4887710;29;20148;-67
2023/01/09 12:19:25;;;;;;;94.30;42.55;;;4.80;99.90;;;;;;4930880;28;20051;-65
2023/01/09 12:22:19;;;;;;;98.47;43.20;;;4.80;99.90;;;;;;4952378;28;20134;-65
2023/01/09 12:25:14;;;;;;;102.60;42.42;;;4.80;99.90;;;;;;4952167;28;20468;-63
2023/01/09 12:28:13;;;;;;;93.68;41.10;;;4.80;99.90;;;;;;4950364;28;20079;-64
2023/01/09 12:31:01;;;;;;;97.20;42.55;;;4.80;99.90;;;;;;4946314;28;20146;-66
2023/01/09 12:33:52;;;;;;;93.28;38.97;;;4.80;99.90;;;;;;4953081;28;20051;-67
2023/01/09 12:36:30;;;;;;;105.90;46.10;;;4.80;99.90;;;;;;4955165;28;20145;-65
2023/01/09 12:39:22;;;;;;;93.88;44.08;;;4.70;99.90;;;;;;4946964;28;20058;-63
2023/01/09 12:42:00;;;;;;;105.65;42.40;;;4.70;99.90;;;;;;4949277;28;20134;-66
2023/01/09 12:44:45;;;;;;;92.70;43.75;;;4.70;99.90;;;;;;4951528;28;20406;-67
2023/01/09 12:47:18;;;;;;;89.80;41.72;;;4.70;99.90;;;;;;4955641;28;20094;-65
2023/01/09 12:49:48;;;;;;;94.93;41.75;;;4.60;99.90;;;;;;4949530;28;20404;-66
2023/01/09 12:52:19;;;;;;;90.68;40.13;;;4.60;99.90;;;;;;4953374;28;20055;-67
2023/01/09 12:54:52;;;;;;;96.70;41.85;;;4.60;99.90;;;;;;4950156;28;20051;-64
2023/01/09 12:57:42;;;;;;;71.35;35.17;;;4.60;99.90;;;;;;4953935;28;20149;-65
2023/01/09 13:00:19;;;;;;;84.30;35.90;;;4.50;99.90;;;;;;4954839;28;20129;-67
2023/01/09 13:03:09;;;;;;;86.43;39.15;;;4.50;99.90;;;;;;4956301;28;20047;-65
2023/01/09 13:05:49;;;;;;;90.00;38.83;;;4.50;99.90;;;;;;4954827;28;20083;-66
2023/01/09 13:08:24;;;;;;;87.03;38.97;;;4.50;99.90;;;;;;4949321;28;20048;-65
2023/01/09 13:10:56;;;;;;;85.57;44.63;;;4.50;99.90;;;;;;4953356;28;20121;-62
2023/01/09 13:13:46;;;;;;;93.07;40.53;;;4.50;99.90;;;;;;4951204;28;20055;-66